Time;durP1;ratioP1;P1;durP2;ratioP2;P2;SDS_P1;SDS_P2;PMS_P1;PMS_P2;Temp;Humidity;BMP_temperature;BMP_pressure;BME280_temperature;BME280_humidity;BME280_pressure;Samples;Min_cycle;Max_cycle;Signal;HPM_P1;HPM_P2
2023/06/20 00:01:32;;;;;;;;;;;17.40;99.90;;;;;;5059497;28;19990;-85
2023/06/20 00:03:58;;;;;;;;;;;17.40;99.90;;;;;;5076963;28;19940;-84
2023/06/20 00:06:23;;;;;;;;;;;17.40;99.90;;;;;;5075832;28;20386;-85
2023/06/20 00:08:50;;;;;;;;;;;17.40;99.90;;;;;;5076690;28;19948;-85
2023/06/20 00:11:16;;;;;;;;;;;17.40;99.90;;;;;;5076461;28;19946;-84
2023/06/20 00:13:42;;;;;;;;;;;17.50;99.90;;;;;;5076510;28;20359;-84
2023/06/20 00:16:11;;;;;;;;;;;17.50;99.90;;;;;;5076365;28;19931;-85
2023/06/20 00:18:36;;;;;;;;;;;17.50;99.90;;;;;;5076416;28;20349;-85
2023/06/20 00:21:02;;;;;;;;;;;17.50;99.90;;;;;;5077004;28;19966;-85
2023/06/20 00:23:30;;;;;;;;;;;17.50;99.90;;;;;;5074988;28;19974;-85
2023/06/20 00:25:56;;;;;;;;;;;17.50;99.90;;;;;;5075374;28;20025;-84
2023/06/20 00:28:21;;;;;;;;;;;17.50;99.90;;;;;;5076155;28;20281;-84
2023/06/20 00:30:47;;;;;;;;;;;17.50;99.90;;;;;;5075296;28;20045;-85
2023/06/20 00:33:12;;;;;;;;;;;17.60;99.90;;;;;;5076040;28;19924;-84
2023/06/20 00:35:38;;;;;;;;;;;17.60;99.90;;;;;;5059118;28;19931;-85
2023/06/20 00:38:04;;;;;;;;;;;17.60;99.90;;;;;;5076523;28;19948;-84
2023/06/20 00:40:29;;;;;;;;;;;17.60;99.90;;;;;;5075536;28;19924;-86
2023/06/20 00:42:55;;;;;;;;;;;17.60;99.90;;;;;;5076522;28;19924;-84
2023/06/20 00:45:32;;;;;;;;;;;17.60;99.90;;;;;;5078580;28;19924;-85
2023/06/20 00:47:58;;;;;;;;;;;17.60;99.90;;;;;;5077215;28;19924;-85
2023/06/20 00:50:27;;;;;;;;;;;17.60;99.90;;;;;;5077034;28;20314;-85
2023/06/20 00:52:57;;;;;;;;;;;17.50;99.90;;;;;;5075710;28;19924;-84
2023/06/20 00:55:22;;;;;;;;;;;17.60;99.90;;;;;;5075934;28;20340;-85
2023/06/20 00:57:48;;;;;;;;;;;17.60;99.90;;;;;;5076023;28;19947;-84
2023/06/20 01:00:14;;;;;;;;;;;17.60;99.90;;;;;;5075610;28;19924;-84
2023/06/20 01:02:46;;;;;;;;;;;17.60;99.90;;;;;;5074571;28;20371;-85
2023/06/20 01:05:15;;;;;;;;;;;17.60;99.90;;;;;;5075647;28;19924;-86
2023/06/20 01:07:49;;;;;;;;;;;17.50;99.90;;;;;;5075206;28;19924;-85
2023/06/20 01:10:35;;;;;;;;;;;17.50;99.90;;;;;;5075073;28;19946;-85
2023/06/20 01:13:19;;;;;;;;;;;17.60;99.90;;;;;;5043586;28;20023;-85
2023/06/20 01:15:54;;;;;;;;;;;17.60;99.90;;;;;;5074513;28;19924;-85
2023/06/20 01:18:19;;;;;;;;;;;17.60;99.90;;;;;;5076155;28;19986;-84
2023/06/20 01:20:58;;;;;;;;;;;17.60;99.90;;;;;;5075444;28;20284;-84
2023/06/20 01:23:31;;;;;;;;;;;17.60;99.90;;;;;;5074296;28;19924;-84
2023/06/20 01:26:02;;;;;;;;;;;17.60;99.90;;;;;;5075247;28;19925;-85
2023/06/20 01:28:36;;;;;;;;;;;17.60;99.90;;;;;;5076123;28;19924;-84
2023/06/20 01:31:03;;;;;;;;;;;17.60;99.90;;;;;;5074265;28;19977;-84
2023/06/20 01:33:30;;;;;;;;;;;17.60;99.90;;;;;;5075034;28;19931;-84
2023/06/20 01:35:58;;;;;;;;;;;17.60;99.90;;;;;;5074825;28;19928;-84
2023/06/20 01:38:26;;;;;;;;;;;17.60;99.90;;;;;;5074398;28;19932;-84
2023/06/20 01:40:52;;;;;;;;;;;17.60;99.90;;;;;;5075214;28;20019;-84
2023/06/20 01:43:19;;;;;;;;;;;17.60;99.90;;;;;;5073615;28;19971;-85
2023/06/20 01:45:47;;;;;;;;;;;17.60;99.90;;;;;;5074616;28;19925;-85
2023/06/20 01:48:13;;;;;;;;;;;17.60;99.90;;;;;;5074699;28;19933;-85
2023/06/20 01:50:39;;;;;;;;;;;17.60;99.90;;;;;;5074500;28;20015;-85
2023/06/20 01:53:06;;;;;;;;;;;17.60;99.90;;;;;;5074646;28;19946;-86
2023/06/20 01:55:32;;;;;;;;;;;17.60;99.90;;;;;;5073412;28;19928;-84
2023/06/20 01:57:58;;;;;;;;;;;17.60;99.90;;;;;;5074384;28;20260;-86
2023/06/20 02:00:26;;;;;;;;;;;17.60;99.90;;;;;;5074202;28;19928;-85
2023/06/20 02:02:54;;;;;;;;;;;17.50;99.90;;;;;;5074850;28;19924;-86
2023/06/20 02:05:21;;;;;;;;;;;17.60;99.90;;;;;;5074660;28;19978;-84
2023/06/20 02:07:48;;;;;;;;;;;17.50;99.90;;;;;;5073156;28;20300;-85
2023/06/20 02:10:14;;;;;;;;;;;17.50;99.90;;;;;;5074612;28;19929;-85
2023/06/20 02:12:40;;;;;;;;;;;17.50;99.90;;;;;;5074492;28;19924;-84
2023/06/20 02:15:06;;;;;;;;;;;17.50;99.90;;;;;;5073016;28;19924;-85
2023/06/20 02:17:33;;;;;;;;;;;17.50;99.90;;;;;;5073824;28;20260;-85
2023/06/20 02:19:58;;;;;;;;;;;17.40;99.90;;;;;;5073900;28;19924;-84
2023/06/20 02:22:25;;;;;;;;;;;17.40;99.90;;;;;;5073696;28;19928;-84
2023/06/20 02:24:51;;;;;;;;;;;17.40;99.90;;;;;;5073824;28;19929;-84
2023/06/20 02:27:17;;;;;;;;;;;17.40;99.90;;;;;;5072905;28;20017;-85
2023/06/20 02:29:43;;;;;;;;;;;17.40;99.90;;;;;;5074109;28;19924;-84
2023/06/20 02:32:10;;;;;;;;;;;17.40;99.90;;;;;;5073759;28;19925;-85
2023/06/20 02:34:38;;;;;;;;;;;17.40;99.90;;;;;;5073656;28;19924;-85
2023/06/20 02:37:04;;;;;;;;;;;17.40;99.90;;;;;;5072405;28;20375;-84
2023/06/20 02:39:30;;;;;;;;;;;17.40;99.90;;;;;;5073676;28;20489;-84
2023/06/20 02:41:57;;;;;;;;;;;17.30;99.90;;;;;;5072071;28;19924;-86
2023/06/20 02:44:23;;;;;;;;;;;17.40;99.90;;;;;;5072264;28;19929;-84
2023/06/20 02:46:55;;;;;;;;;;;17.40;99.90;;;;;;5073192;28;19931;-85
2023/06/20 02:49:23;;;;;;;;;;;17.40;99.90;;;;;;5073174;28;20380;-85
2023/06/20 02:51:51;;;;;;;;;;;17.40;99.90;;;;;;5073440;28;19975;-85
2023/06/20 02:54:20;;;;;;;;;;;17.40;99.90;;;;;;5072542;28;19990;-84
2023/06/20 02:56:47;;;;;;;;;;;17.40;99.90;;;;;;5073166;28;19968;-84
2023/06/20 02:59:13;;;;;;;;;;;17.40;99.90;;;;;;5072830;28;19974;-85
2023/06/20 03:01:41;;;;;;;;;;;17.40;99.90;;;;;;5073919;28;19928;-85
2023/06/20 03:04:06;;;;;;;;;;;17.40;99.90;;;;;;5072353;28;19924;-85
2023/06/20 03:06:32;;;;;;;;;;;17.50;99.90;;;;;;5073423;28;19924;-84
2023/06/20 03:08:59;;;;;;;;;;;17.50;99.90;;;;;;5073330;28;19977;-86
2023/06/20 03:11:25;;;;;;;;;;;17.50;99.90;;;;;;5073317;28;19976;-84
2023/06/20 03:13:51;;;;;;;;;;;17.50;99.90;;;;;;5073913;28;19997;-85
2023/06/20 03:16:16;;;;;;;;;;;17.50;99.90;;;;;;5075234;28;20320;-85
2023/06/20 03:18:42;;;;;;;;;;;17.50;99.90;;;;;;5076011;28;20023;-85
2023/06/20 03:21:07;;;;;;;;;;;17.50;99.90;;;;;;5074799;28;19924;-85
2023/06/20 03:23:33;;;;;;;;;;;17.60;99.90;;;;;;5072821;28;19925;-85
2023/06/20 03:25:59;;;;;;;;;;;17.60;99.90;;;;;;5073701;28;19936;-85
2023/06/20 03:28:24;;;;;;;;;;;17.60;99.90;;;;;;5073481;28;19974;-85
2023/06/20 03:30:50;;;;;;;;;;;17.60;99.90;;;;;;5073178;28;19929;-85
2023/06/20 03:33:16;;;;;;;;;;;17.60;99.90;;;;;;5055754;28;19924;-84
2023/06/20 03:35:42;;;;;;;;;;;17.60;99.90;;;;;;5072555;28;20283;-85
2023/06/20 03:38:07;;;;;;;;;;;17.60;99.90;;;;;;5072733;28;19925;-84
2023/06/20 03:40:33;;;;;;;;;;;17.70;99.90;;;;;;5073204;28;20038;-84
2023/06/20 03:42:59;;;;;;;;;;;17.70;99.90;;;;;;5072524;28;19931;-84
2023/06/20 03:45:24;;;;;;;;;;;17.70;99.90;;;;;;5073093;28;20019;-85
2023/06/20 03:47:50;;;;;;;;;;;17.70;99.90;;;;;;5072990;28;20263;-85
2023/06/20 03:50:16;;;;;;;;;;;17.70;99.90;;;;;;5073569;28;19931;-84
2023/06/20 03:52:41;;;;;;;;;;;17.70;99.90;;;;;;5055095;28;19928;-85
2023/06/20 03:55:07;;;;;;;;;;;17.70;99.90;;;;;;5072007;28;19932;-84
2023/06/20 03:57:32;;;;;;;;;;;17.70;99.90;;;;;;5072227;28;19978;-85
2023/06/20 03:59:58;;;;;;;;;;;17.70;99.90;;;;;;5075588;28;20015;-85
2023/06/20 04:02:23;;;;;;;;;;;17.70;99.90;;;;;;5076625;28;19935;-85
2023/06/20 04:04:52;;;;;;;;;;;17.70;99.90;;;;;;5077154;28;19936;-85
2023/06/20 04:07:20;;;;;;;;;;;17.80;99.90;;;;;;5076479;28;19946;-84
2023/06/20 04:09:47;;;;;;;;;;;17.70;99.90;;;;;;5076267;28;19938;-86
2023/06/20 04:12:12;;;;;;;;;;;17.70;99.90;;;;;;5076893;28;20389;-84
2023/06/20 04:14:38;;;;;;;;;;;17.80;99.90;;;;;;5076274;28;19952;-84
2023/06/20 04:17:04;;;;;;;;;;;17.80;99.90;;;;;;5075566;28;20360;-84
2023/06/20 04:19:29;;;;;;;;;;;17.90;99.90;;;;;;5076265;28;20273;-85
2023/06/20 04:21:55;;;;;;;;;;;17.90;99.90;;;;;;5076200;28;19944;-85
2023/06/20 04:24:20;;;;;;;;;;;17.90;99.90;;;;;;5075180;28;19928;-85
2023/06/20 04:26:46;;;;;;;;;;;18.00;99.90;;;;;;5076066;28;20290;-85
2023/06/20 04:29:11;;;;;;;;;;;18.00;99.90;;;;;;5076318;28;19971;-84
2023/06/20 04:31:37;;;;;;;;;;;18.10;99.90;;;;;;5075957;28;19925;-84
2023/06/20 04:34:02;;;;;;;;;;;18.10;99.90;;;;;;5077009;28;19924;-85
2023/06/20 04:36:29;;;;;;;;;;;18.20;99.90;;;;;;5076149;28;19930;-85
2023/06/20 04:38:55;;;;;;;;;;;18.20;99.90;;;;;;5075989;28;19929;-85
2023/06/20 04:41:21;;;;;;;;;;;18.30;99.90;;;;;;5074930;28;19935;-84
2023/06/20 04:43:46;;;;;;;;;;;18.40;99.90;;;;;;5076926;28;19925;-84
2023/06/20 04:46:12;;;;;;;;;;;18.40;99.90;;;;;;5074892;28;20260;-85
2023/06/20 04:48:38;;;;;;;;;;;18.50;99.90;;;;;;5076074;28;19925;-85
2023/06/20 04:51:07;;;;;;;;;;;18.50;99.90;;;;;;5076063;28;19924;-86
2023/06/20 04:53:33;;;;;;;;;;;18.60;99.90;;;;;;5075843;28;19925;-85
2023/06/20 04:55:59;;;;;;;;;;;18.70;99.90;;;;;;5076347;28;19925;-85
2023/06/20 04:58:28;;;;;;;;;;;18.80;99.90;;;;;;5074876;28;19974;-84
2023/06/20 05:00:57;;;;;;;;;;;18.80;99.90;;;;;;5075720;28;20018;-85
2023/06/20 05:03:23;;;;;;;;;;;18.90;99.90;;;;;;5075658;28;20429;-85
2023/06/20 05:05:48;;;;;;;;;;;18.90;99.90;;;;;;5075698;28;19924;-84
2023/06/20 05:08:14;;;;;;;;;;;19.00;99.90;;;;;;5074588;28;19946;-86
2023/06/20 05:10:39;;;;;;;;;;;19.00;99.90;;;;;;5074702;28;19978;-86
2023/06/20 05:13:05;;;;;;;;;;;19.10;99.90;;;;;;5075141;28;20043;-85
2023/06/20 05:15:30;;;;;;;;;;;19.20;99.90;;;;;;5075953;28;19940;-85
2023/06/20 05:17:56;;;;;;;;;;;19.20;99.90;;;;;;5075558;28;20276;-85
2023/06/20 05:20:22;;;;;;;;;;;19.30;99.90;;;;;;5074030;28;19931;-85
2023/06/20 05:22:47;;;;;;;;;;;19.40;99.90;;;;;;5075722;28;20248;-86
2023/06/20 05:25:13;;;;;;;;;;;19.50;99.90;;;;;;5074680;28;19950;-85
2023/06/20 05:27:39;;;;;;;;;;;19.60;99.90;;;;;;5075183;28;19971;-85
2023/06/20 05:30:05;;;;;;;;;;;19.70;99.90;;;;;;5074873;28;20268;-85
2023/06/20 05:32:30;;;;;;;;;;;19.70;99.90;;;;;;5075430;28;20021;-85
2023/06/20 05:34:56;;;;;;;;;;;19.70;99.90;;;;;;5074982;28;19924;-87
2023/06/20 05:37:22;;;;;;;;;;;19.70;99.90;;;;;;5074883;28;20213;-85
2023/06/20 05:39:48;;;;;;;;;;;19.80;99.90;;;;;;5074866;28;20012;-84
2023/06/20 05:42:13;;;;;;;;;;;19.80;99.90;;;;;;5075055;28;19947;-84
2023/06/20 05:44:39;;;;;;;;;;;19.70;99.90;;;;;;5073942;28;19974;-85
2023/06/20 05:47:05;;;;;;;;;;;19.80;99.90;;;;;;5074869;28;19930;-84
2023/06/20 05:49:30;;;;;;;;;;;19.70;99.90;;;;;;5078130;28;19977;-84
2023/06/20 05:51:57;;;;;;;;;;;19.70;99.90;;;;;;5075615;28;19928;-86
2023/06/20 05:54:25;;;;;;;;;;;19.70;99.90;;;;;;5075359;28;19970;-85
2023/06/20 05:56:51;;;;;;;;;;;19.70;99.90;;;;;;5075292;28;19928;-84
2023/06/20 05:59:17;;;;;;;;;;;19.70;99.90;;;;;;5075151;28;19924;-85
2023/06/20 06:01:44;;;;;;;;;;;19.70;99.90;;;;;;5073919;28;19973;-84
2023/06/20 06:04:10;;;;;;;;;;;19.70;99.90;;;;;;5074527;28;19925;-85
2023/06/20 06:06:36;;;;;;;;;;;19.70;99.90;;;;;;5073524;28;20257;-86
2023/06/20 06:09:03;;;;;;;;;;;19.80;99.90;;;;;;5074257;28;20013;-85
2023/06/20 06:11:28;;;;;;;;;;;20.00;99.90;;;;;;5074405;28;19928;-84
2023/06/20 06:13:54;;;;;;;;;;;20.10;99.90;;;;;;5073056;28;19954;-84
2023/06/20 06:16:19;;;;;;;;;;;20.30;99.90;;;;;;5073722;28;20007;-85
2023/06/20 06:18:45;;;;;;;;;;;20.70;99.90;;;;;;5074551;28;19970;-86
2023/06/20 06:21:11;;;;;;;;;;;21.20;99.90;;;;;;5073864;28;20374;-86
2023/06/20 06:23:37;;;;;;;;;;;21.60;99.90;;;;;;5073676;28;19947;-86
2023/06/20 06:26:04;;;;;;;;;;;21.90;99.90;;;;;;5073864;28;19999;-84
2023/06/20 06:28:30;;;;;;;;;;;22.10;99.90;;;;;;5074652;28;19970;-86
2023/06/20 06:30:59;;;;;;;;;;;22.20;99.90;;;;;;5073749;28;19968;-86
2023/06/20 06:33:25;;;;;;;;;;;22.20;99.90;;;;;;5073036;28;19951;-86
2023/06/20 06:35:51;;;;;;;;;;;22.20;99.90;;;;;;5073729;28;19928;-86
2023/06/20 06:38:17;;;;;;;;;;;22.20;99.90;;;;;;5074620;28;20022;-86
2023/06/20 06:40:43;;;;;;;;;;;22.10;99.90;;;;;;5073479;28;19925;-85
2023/06/20 06:43:09;;;;;;;;;;;22.10;99.90;;;;;;5073707;28;19925;-86
2023/06/20 06:45:38;;;;;;;;;;;22.10;99.90;;;;;;5073621;28;20287;-89
2023/06/20 06:48:04;;;;;;;;;;;22.00;99.90;;;;;;5074746;28;19932;-85
2023/06/20 06:50:29;;;;;;;;;;;21.90;99.90;;;;;;5072480;28;19942;-84
2023/06/20 06:52:55;;;;;;;;;;;21.90;99.90;;;;;;5074105;28;19967;-87
2023/06/20 06:55:20;;;;;;;;;;;21.80;99.90;;;;;;5073728;28;20364;-85
2023/06/20 06:57:46;;;;;;;;;;;21.80;99.90;;;;;;5073983;28;19925;-88
2023/06/20 07:00:14;;;;;;;;;;;21.70;99.90;;;;;;5072530;28;19935;-83
2023/06/20 07:02:40;;;;;;;;;;;21.70;99.90;;;;;;5073309;28;19974;-86
2023/06/20 07:05:06;;;;;;;;;;;21.70;99.90;;;;;;5073461;28;19924;-83
2023/06/20 07:07:31;;;;;;;;;;;21.70;99.90;;;;;;5073411;28;19932;-86
2023/06/20 07:09:57;;;;;;;;;;;21.70;99.90;;;;;;5073425;28;19997;-83
2023/06/20 07:12:23;;;;;;;;;;;21.70;99.90;;;;;;5073337;28;19928;-84
2023/06/20 07:14:50;;;;;;;;;;;21.60;99.90;;;;;;5073258;28;19924;-84
2023/06/20 07:17:15;;;;;;;;;;;21.60;99.90;;;;;;5073318;28;20375;-83
2023/06/20 07:19:43;;;;;;;;;;;21.60;99.90;;;;;;5072865;28;19970;-84
2023/06/20 07:22:08;;;;;;;;;;;21.60;99.90;;;;;;5073766;28;19929;-83
2023/06/20 07:24:34;;;;;;;;;;;21.70;99.90;;;;;;5073187;28;20371;-84
2023/06/20 07:26:59;;;;;;;;;;;21.70;99.90;;;;;;5073477;28;19947;-83
2023/06/20 07:29:25;;;;;;;;;;;21.70;99.90;;;;;;5073476;28;19931;-83
2023/06/20 07:31:51;;;;;;;;;;;21.80;99.90;;;;;;5072494;28;20056;-83
2023/06/20 07:34:16;;;;;;;;;;;21.80;99.90;;;;;;5076227;28;19924;-84
2023/06/20 07:36:42;;;;;;;;;;;21.80;99.90;;;;;;5077819;28;20272;-85
2023/06/20 07:39:07;;;;;;;;;;;21.80;99.90;;;;;;5076457;28;19925;-84
2023/06/20 07:41:33;;;;;;;;;;;21.80;99.90;;;;;;5077014;28;19925;-84
2023/06/20 07:43:58;;;;;;;;;;;21.80;99.90;;;;;;5077284;28;20346;-86
2023/06/20 07:46:25;;;;;;;;;;;21.70;99.90;;;;;;5077167;28;20007;-83
2023/06/20 07:48:51;;;;;;;;;;;21.60;99.90;;;;;;5076719;28;19983;-83
2023/06/20 07:51:16;;;;;;;;;;;21.60;99.90;;;;;;5077062;28;19979;-84
2023/06/20 07:53:42;;;;;;;;;;;21.50;99.90;;;;;;5076926;28;19928;-84
2023/06/20 07:56:07;;;;;;;;;;;21.50;99.90;;;;;;5077841;28;19931;-84
2023/06/20 07:58:33;;;;;;;;;;;21.40;99.90;;;;;;5076095;28;20268;-83
2023/06/20 08:01:00;;;;;;;;;;;21.40;99.90;;;;;;5075941;28;20322;-84
2023/06/20 08:03:26;;;;;;;;;;;21.30;99.90;;;;;;5077561;28;19951;-83
2023/06/20 08:05:52;;;;;;;;;;;21.30;99.90;;;;;;5077360;28;19925;-85
2023/06/20 08:08:18;;;;;;;;;;;21.30;99.90;;;;;;5075714;28;20287;-84
2023/06/20 08:10:44;;;;;;;;;;;21.40;99.90;;;;;;5076037;28;19982;-83
2023/06/20 08:13:09;;;;;;;;;;;21.40;99.90;;;;;;5076301;28;19946;-84
2023/06/20 08:15:35;;;;;;;;;;;21.50;99.90;;;;;;5076481;28;20042;-83
2023/06/20 08:18:00;;;;;;;;;;;21.50;99.90;;;;;;5076557;28;19929;-82
2023/06/20 08:20:26;;;;;;;;;;;21.60;99.90;;;;;;5077421;28;19924;-85
2023/06/20 08:22:51;;;;;;;;;;;21.70;99.90;;;;;;5078886;28;19924;-83
2023/06/20 08:25:17;;;;;;;;;;;21.80;99.90;;;;;;5075552;28;19926;-84
2023/06/20 08:27:42;;;;;;;;;;;22.10;99.90;;;;;;5076465;28;19931;-84
2023/06/20 08:30:08;;;;;;;;;;;22.30;99.90;;;;;;5075545;28;19932;-84
2023/06/20 08:32:36;;;;;;;;;;;22.50;99.90;;;;;;5075302;28;19925;-85
2023/06/20 08:35:02;;;;;;;;;;;22.60;99.90;;;;;;5076603;28;19925;-85
2023/06/20 08:37:27;;;;;;;;;;;22.80;99.90;;;;;;5076380;28;20421;-83
2023/06/20 08:39:53;;;;;;;;;;;23.00;99.90;;;;;;5076288;28;19947;-84
2023/06/20 08:42:19;;;;;;;;;;;23.10;99.90;;;;;;5076152;28;19924;-84
2023/06/20 08:44:44;;;;;;;;;;;23.20;99.90;;;;;;5075541;28;20384;-83
2023/06/20 08:47:10;;;;;;;;;;;23.40;99.90;;;;;;5075630;28;19928;-83
2023/06/20 08:49:36;;;;;;;;;;;23.40;99.90;;;;;;5075914;28;19931;-84
2023/06/20 08:52:03;;;;;;;;;;;23.50;99.90;;;;;;5075599;28;19924;-83
2023/06/20 08:54:31;;;;;;;;;;;23.70;99.90;;;;;;5076318;28;19925;-83
2023/06/20 08:56:56;;;;;;;;;;;23.90;99.90;;;;;;5075691;28;20015;-84
2023/06/20 08:59:22;;;;;;;;;;;24.10;99.90;;;;;;5074577;28;19966;-83
2023/06/20 09:01:48;;;;;;;;;;;24.50;99.90;;;;;;5075408;28;20259;-83
2023/06/20 09:04:13;;;;;;;;;;;24.70;99.90;;;;;;5075268;28;20375;-83
2023/06/20 09:06:39;;;;;;;;;;;24.90;99.90;;;;;;5075421;28;20023;-84
2023/06/20 09:09:17;;;;;;;;;;;25.10;99.90;;;;;;5075357;28;20015;-85
2023/06/20 09:11:52;;;;;;;;;;;25.40;99.90;;;;;;5075414;28;19924;-84
2023/06/20 09:14:18;;;;;;;;;;;25.80;99.90;;;;;;5074241;28;19928;-83
2023/06/20 09:16:46;;;;;;;;;;;26.20;99.90;;;;;;5075189;28;20367;-85
2023/06/20 09:19:12;;;;;;;;;;;26.60;99.90;;;;;;5075715;28;19931;-85
2023/06/20 09:21:38;;;;;;;;;;;27.10;99.90;;;;;;5075930;28;19925;-86
2023/06/20 09:24:05;;;;;;;;;;;27.40;99.90;;;;;;5075206;28;19982;-83
2023/06/20 09:26:31;;;;;;;;;;;27.70;99.90;;;;;;5075392;28;19983;-84
2023/06/20 09:29:07;;;;;;;;;;;28.00;99.90;;;;;;5075793;28;19931;-84
2023/06/20 09:31:42;;;;;;;;;;;28.30;99.90;;;;;;5075767;28;19931;-84
2023/06/20 09:34:11;;;;;;;;;;;28.50;99.90;;;;;;5075211;28;19924;-84
2023/06/20 09:36:39;;;;;;;;;;;28.80;99.90;;;;;;5075405;28;19931;-84
2023/06/20 09:39:20;;;;;;;;;;;29.00;99.90;;;;;;5057088;28;19978;-85
2023/06/20 09:41:46;;;;;;;;;;;29.10;99.90;;;;;;5073406;28;20390;-84
2023/06/20 09:44:15;;;;;;;;;;;29.30;99.90;;;;;;5074164;28;19968;-84
2023/06/20 09:46:41;;;;;;;;;;;29.40;99.90;;;;;;5074420;28;20406;-86
2023/06/20 09:49:06;;;;;;;;;;;29.50;99.90;;;;;;5073640;28;19924;-85
2023/06/20 09:51:33;;;;;;;;;;;29.70;99.90;;;;;;5074610;28;20015;-84
2023/06/20 09:54:05;;;;;;;;;;;29.80;99.90;;;;;;5075079;28;20429;-88
2023/06/20 09:56:35;;;;;;;;;;;29.80;99.90;;;;;;5073845;28;19935;-84
2023/06/20 09:59:01;;;;;;;;;;;30.00;99.90;;;;;;5074641;28;19925;-84
2023/06/20 10:01:27;;;;;;;;;;;30.10;99.40;;;;;;5074755;28;19921;-86
2023/06/20 10:03:54;;;;;;;;;;;30.10;99.90;;;;;;5074225;28;20259;-85
2023/06/20 10:06:20;;;;;;;;;;;30.20;99.20;;;;;;5074486;28;20378;-84
2023/06/20 10:08:46;;;;;;;;;;;30.40;98.90;;;;;;5074540;28;19927;-84
2023/06/20 10:11:12;;;;;;;;;;;30.50;99.40;;;;;;5074381;28;19920;-82
2023/06/20 10:13:38;;;;;;;;;;;30.60;98.00;;;;;;5074288;28;20021;-83
2023/06/20 10:16:05;;;;;;;;;;;30.60;95.70;;;;;;5074228;28;19920;-86
2023/06/20 10:18:30;;;;;;;;;;;30.70;97.00;;;;;;5074625;28;19927;-84
2023/06/20 10:20:56;;;;;;;;;;;30.70;96.40;;;;;;5074268;28;20381;-84
2023/06/20 10:23:29;;;;;;;;;;;30.70;96.70;;;;;;5074309;28;20263;-85
2023/06/20 10:25:58;;;;;;;;;;;30.80;94.40;;;;;;5074289;28;20313;-86
2023/06/20 10:28:24;;;;;;;;;;;30.70;94.80;;;;;;5073471;28;20007;-84
2023/06/20 10:30:49;;;;;;;;;;;30.80;92.80;;;;;;5074946;28;19946;-85
2023/06/20 10:33:17;;;;;;;;;;;30.90;94.00;;;;;;5073236;28;19924;-86
2023/06/20 10:35:55;;;;;;;;;;;30.90;94.00;;;;;;5074150;28;19920;-85
2023/06/20 10:38:21;;;;;;;;;;;30.90;93.90;;;;;;5074428;28;20034;-84
2023/06/20 10:40:46;;;;;;;;;;;31.00;94.10;;;;;;5073841;28;20415;-82
2023/06/20 10:43:16;;;;;;;;;;;31.10;92.00;;;;;;5073622;28;19920;-86
2023/06/20 10:45:52;;;;;;;;;;;31.10;93.40;;;;;;5073870;28;20389;-83
2023/06/20 10:48:18;;;;;;;;;;;31.10;92.20;;;;;;5073723;28;20351;-85
2023/06/20 10:50:44;;;;;;;;;;;31.20;92.50;;;;;;5074245;28;19928;-84
2023/06/20 10:53:10;;;;;;;;;;;31.20;91.90;;;;;;5074872;28;19920;-86
2023/06/20 10:55:37;;;;;;;;;;;31.20;91.50;;;;;;5075807;28;19928;-84
2023/06/20 10:58:02;;;;;;;;;;;31.40;91.80;;;;;;5074591;28;20007;-83
2023/06/20 11:00:28;;;;;;;;;;;31.40;90.00;;;;;;5073963;28;20018;-84
2023/06/20 11:02:54;;;;;;;;;;;31.40;91.00;;;;;;5074279;28;19924;-85
2023/06/20 11:05:33;;;;;;;;;;;31.40;92.50;;;;;;5073730;28;19921;-83
2023/06/20 11:08:00;;;;;;;;;;;31.50;91.40;;;;;;5072674;28;19927;-84
2023/06/20 11:10:25;;;;;;;;;;;31.60;90.40;;;;;;5072892;28;19920;-84
2023/06/20 11:12:51;;;;;;;;;;;31.80;88.90;;;;;;5073732;28;19970;-87
2023/06/20 11:15:20;;;;;;;;;;;32.00;86.30;;;;;;5073691;28;19921;-86
2023/06/20 11:17:46;;;;;;;;;;;32.20;90.40;;;;;;5073621;28;19921;-84
2023/06/20 11:20:12;;;;;;;;;;;32.30;88.20;;;;;;5073524;28;19990;-84
2023/06/20 11:22:37;;;;;;;;;;;32.40;85.50;;;;;;5072279;28;20355;-85
2023/06/20 11:25:03;;;;;;;;;;;32.50;86.80;;;;;;5073718;28;19920;-85
2023/06/20 11:27:29;;;;;;;;;;;32.60;88.40;;;;;;5074209;28;19974;-87
2023/06/20 11:29:54;;;;;;;;;;;32.70;85.40;;;;;;5073512;28;20268;-86
2023/06/20 11:32:20;;;;;;;;;;;32.80;81.50;;;;;;5072449;28;19931;-87
2023/06/20 11:35:03;;;;;;;;;;;32.80;85.30;;;;;;5073337;28;19932;-84
2023/06/20 11:37:29;;;;;;;;;;;32.80;83.00;;;;;;5073485;28;19931;-86
2023/06/20 11:39:55;;;;;;;;;;;32.70;85.10;;;;;;5073450;28;20038;-85
2023/06/20 11:42:21;;;;;;;;;;;32.60;83.20;;;;;;5073513;28;20536;-87
2023/06/20 11:44:49;;;;;;;;;;;32.40;82.00;;;;;;5072697;28;20220;-85
2023/06/20 11:47:14;;;;;;;;;;;32.30;80.80;;;;;;5072145;28;19932;-86
2023/06/20 11:49:40;;;;;;;;;;;32.00;81.40;;;;;;5074190;28;19925;-86
2023/06/20 11:52:07;;;;;;;;;;;31.80;82.60;;;;;;5073214;28;20376;-87
2023/06/20 11:54:45;;;;;;;;;;;31.70;84.80;;;;;;5072287;28;19925;-87
2023/06/20 11:57:20;;;;;;;;;;;31.80;87.70;;;;;;5073306;28;20410;-86
2023/06/20 11:59:46;;;;;;;;;;;31.70;81.70;;;;;;5073306;28;19924;-86
2023/06/20 12:02:12;;;;;;;;;;;31.80;84.10;;;;;;5072915;28;19932;-86
2023/06/20 12:04:42;;;;;;;;;;;32.00;82.90;;;;;;5073795;28;19929;-86
2023/06/20 12:07:08;;;;;;;;;;;32.20;83.00;;;;;;5055510;28;19990;-86
2023/06/20 12:09:40;;;;;;;;;;;32.30;81.00;;;;;;5073154;28;20026;-86
2023/06/20 12:12:06;;;;;;;;;;;32.40;79.20;;;;;;5071896;28;19924;-85
2023/06/20 12:14:32;;;;;;;;;;;32.60;78.20;;;;;;5073036;28;20058;-88
2023/06/20 12:16:57;;;;;;;;;;;32.40;76.90;;;;;;5073051;28;19932;-85
2023/06/20 12:19:24;;;;;;;;;;;32.20;77.30;;;;;;5073108;28;19994;-85
2023/06/20 12:21:49;;;;;;;;;;;32.10;75.90;;;;;;5074649;28;20425;-85
2023/06/20 12:24:20;;;;;;;;;;;32.00;74.80;;;;;;5076554;28;19929;-86
2023/06/20 12:26:51;;;;;;;;;;;32.10;80.00;;;;;;5076798;28;19990;-85
2023/06/20 12:29:16;;;;;;;;;;;32.40;79.60;;;;;;5077371;28;19928;-86
2023/06/20 12:31:42;;;;;;;;;;;32.60;78.90;;;;;;5075480;28;20425;-86
2023/06/20 12:34:08;;;;;;;;;;;32.60;76.00;;;;;;5076599;28;20031;-89
2023/06/20 12:36:34;;;;;;;;;;;32.40;75.40;;;;;;5076243;28;19924;-87
2023/06/20 12:39:00;;;;;;;;;;;32.30;75.80;;;;;;5075316;28;20252;-86
2023/06/20 12:41:33;;;;;;;;;;;32.40;76.00;;;;;;5076086;28;19931;-87
2023/06/20 12:43:59;;;;;;;;;;;32.50;74.80;;;;;;5076791;28;19928;-85
2023/06/20 12:46:24;;;;;;;;;;;32.70;78.40;;;;;;5076120;28;19928;-85
2023/06/20 12:48:50;;;;;;;;;;;32.80;71.80;;;;;;5076086;28;19931;-86
2023/06/20 12:51:15;;;;;;;;;;;32.70;72.50;;;;;;5075155;28;19924;-87
2023/06/20 12:53:41;;;;;;;;;;;32.60;73.50;;;;;;5076554;28;19928;-86
2023/06/20 12:56:06;;;;;;;;;;;32.60;75.80;;;;;;5076017;28;20264;-86
2023/06/20 12:58:33;;;;;;;;;;;32.40;72.80;;;;;;5076458;28;19979;-86
2023/06/20 13:00:59;;;;;;;;;;;32.10;72.80;;;;;;5075930;28;19924;-86
2023/06/20 13:03:26;;;;;;;;;;;31.90;74.60;;;;;;5075975;28;19928;-85
2023/06/20 13:05:52;;;;;;;;;;;31.90;75.20;;;;;;5075785;28;19935;-86
2023/06/20 13:08:18;;;;;;;;;;;31.90;71.60;;;;;;5075864;28;20419;-83
2023/06/20 13:10:44;;;;;;;;;;;31.80;75.20;;;;;;5076183;28;19983;-84
2023/06/20 13:13:10;;;;;;;;;;;31.70;75.00;;;;;;5075834;28;19980;-87
2023/06/20 13:15:35;;;;;;;;;;;31.70;76.30;;;;;;5076403;28;19924;-85
2023/06/20 13:18:04;;;;;;;;;;;31.80;75.40;;;;;;5076353;28;20010;-86
2023/06/20 13:20:30;;;;;;;;;;;31.80;74.40;;;;;;5075753;28;19932;-86
2023/06/20 13:22:56;;;;;;;;;;;32.00;73.60;;;;;;5075962;28;19924;-85
2023/06/20 13:25:22;;;;;;;;;;;32.20;74.80;;;;;;5076280;28;19928;-86
2023/06/20 13:27:48;;;;;;;;;;;32.50;75.60;;;;;;5076979;28;19931;-86
2023/06/20 13:30:17;;;;;;;;;;;32.30;72.50;;;;;;5076500;28;20321;-85
2023/06/20 13:32:43;;;;;;;;;;;32.00;72.50;;;;;;5075243;28;20414;-88
2023/06/20 13:35:09;;;;;;;;;;;31.90;75.20;;;;;;5075758;28;19967;-86
2023/06/20 13:37:36;;;;;;;;;;;32.00;72.90;;;;;;5077069;28;19924;-86
2023/06/20 13:40:07;;;;;;;;;;;32.10;73.50;;;;;;5058594;28;20019;-85
2023/06/20 13:42:33;;;;;;;;;;;32.00;72.60;;;;;;5074722;28;20283;-86
2023/06/20 13:44:59;;;;;;;;;;;32.00;74.00;;;;;;5076810;28;19924;-86
2023/06/20 13:47:24;;;;;;;;;;;32.20;72.20;;;;;;5075582;28;19935;-88
2023/06/20 13:49:50;;;;;;;;;;;32.30;72.00;;;;;;5074654;28;19931;-86
2023/06/20 13:52:16;;;;;;;;;;;32.50;74.00;;;;;;5074745;28;19971;-85
2023/06/20 13:54:42;;;;;;;;;;;32.50;70.30;;;;;;5076427;28;19928;-82
2023/06/20 13:57:08;;;;;;;;;;;32.60;70.60;;;;;;5075998;28;20266;-84
2023/06/20 13:59:33;;;;;;;;;;;32.60;72.70;;;;;;5074518;28;19932;-84
2023/06/20 14:01:59;;;;;;;;;;;32.70;70.10;;;;;;5074668;28;19975;-85
2023/06/20 14:04:24;;;;;;;;;;;32.70;70.70;;;;;;5074673;28;19928;-84
2023/06/20 14:06:51;;;;;;;;;;;32.80;71.00;;;;;;5074524;28;19931;-84
2023/06/20 14:09:16;;;;;;;;;;;32.80;71.50;;;;;;5074302;28;20023;-88
2023/06/20 14:11:42;;;;;;;;;;;32.80;72.00;;;;;;5074764;28;20029;-85
2023/06/20 14:14:07;;;;;;;;;;;32.80;72.10;;;;;;5074301;28;20375;-84